Terminal Aerodrome Forecast
Issued by NWS Shreveport, LA

Home | Current Version | Previous Version | Text Only | Print | Product List | Glossary On
Versions: 1 2 3 4 5 6 7 8 9 10 11 12 13 14 15 16 17 18
000
FTUS44 KSHV 280523
TAFTYR
TAF
KTYR 280523Z 2806/2906 15008KT P6SM FEW250
     FM280900 18012G18KT P6SM BKN025
      TEMPO 2810/2813 OVC015
     FM281500 19016G28KT P6SM SKC
      TEMPO 2815/2819 18014G22KT SCT030
     FM290300 16013KT P6SM VCTS OVC030CB=

USA.gov is the U.S. government's official web portal to all federal, state and local government web resources and services.